Medicine Bow, WY

9:41 PM MDT on July 24, 2014 (GMT -0600)
Elk Mountain (KEHY) Elev 7300 ft | 41.73 °N, 106.46 °W | Change Station

Current weather conditions updated 6 minutes ago

Overcast
Overcast
70 °F
Feels Like 70 °F
N
8
Wind Variable Wind from WSW

Tomorrow is forecast to be nearly the same temperature as today.

Today
High -- | Low -- °F
--% Chance of Precip.
Yesterday
High -- | Low -- °F
Precip. -- in
5:50 AM 8:31 PM
Waning Crescent, 3% visible
Pressure 30.17 in
Visibility 10.0 miles
Clouds Overcast 2000 ft
Dew Point 32 °F
Humidity 25%
Rainfall 0.00 in
Snow Depth Not available.
UV 0 out of 12
Pollen 8.00 out of 12
Air Quality Not available.
Flu Activity Not available.
METAR KEHY 250335Z AUTO 24007KT 10SM OVC020 21/00 A3017 RMK AO2

More Conditions Fewer Conditions

Pressure 30.17 in
Visibility 10.0 miles
Clouds Overcast 2000 ft
Dew Point 32 °F
Humidity 25%
Rainfall 0.00 in
Snow Depth Not available.
UV 0 out of 12
Pollen 8.00 out of 12
Air Quality Not available.
Flu Activity Not available.
METAR KEHY 250335Z AUTO 24007KT 10SM OVC020 21/00 A3017 RMK AO2

More Conditions Fewer Conditions

10-Day Weather Forecast

Almanac

Astronomy

Jul. 24, 2014 Rise Set
Actual Time 5:50 AM MDT 8:31 PM MDT
Civil Twilight 5:17 AM MDT 9:03 PM MDT
Nautical Twilight 4:36 AM MDT 9:44 PM MDT
Astronomical Twilight 3:50 AM MDT 10:30 PM MDT
Moon 4:00 AM MDT (7/24) 6:48 PM MDT (7/24)
Length of Visible Light 15h 46m
Length of Day
14h 41m
Tomorrow will be 1m 53s shorter.
Waning Crescent, 3% of the Moon is Illuminated
Today
Waning Crescent
Jul 26
New
Aug 3
First Quarter
Aug 10
Full
Aug 17
Last Quarter

Today's Extremes

State Highs State Lows

Community

WunderPhotos

Upload Photos

1,737,231 photos uploaded!

Nearby

Snow Depth

Station Depth Elevation
Casper Mountain 0 in 7850 ft
Crow Creek 3 in 8330 ft
Sandstone R.S. 10 in 8150 ft
Battle Mountain 0 in 7440 ft
Townsend Creek 0 in 8700 ft

Earthquake Activity

City Distance Mag. Time & Date
No recent earthquake activity has been reported nearby.
Minimum magnitude displayed is 2.5.

Coastal Water Temperatures

Place Temperature
No Stations Reporting

Nearby Weather Stations

Station Location Temp. Heat Index Dew Point Humidity Wind Precip. Elev Updated Type
MesoWest MEDIC1 , Medicine Bow, WY 76 °F 74 °F - - North  at  - 0.00 in / hr 6650 ft 8:00 PM MDT MADIS
Medicine Bow, WY 73.4 °F 76 °F 39 °F 29% WSW  at  7.0 mph 0.00 in / hr 6646 ft 9:41 PM MDT Normal
MesoWest WILCX1 , Rock River, WY 83 °F 81 °F - - North  at  - 0.00 in / hr 7004 ft 8:00 PM MDT MADIS

Show More Stations Show Fewer Stations